Time;durP1;ratioP1;P1;durP2;ratioP2;P2;SDS_P1;SDS_P2;PMS_P1;PMS_P2;Temp;Humidity;BMP_temperature;BMP_pressure;BME280_temperature;BME280_humidity;BME280_pressure;Samples;Min_cycle;Max_cycle;Signal;HPM_P1;HPM_P2
2022/09/21 04:05:38;;;;;;;4.40;3.38;;;5.10;99.90;;;;;;6267176;22;20214;-65
2022/09/21 04:08:03;;;;;;;3.67;3.38;;;5.00;99.90;;;;;;6277832;22;20678;-63
2022/09/21 04:10:32;;;;;;;3.00;2.73;;;5.00;99.90;;;;;;6225273;22;20180;-62
2022/09/21 04:13:00;;;;;;;3.45;3.15;;;5.10;99.90;;;;;;6277707;22;20152;-64
2022/09/21 04:15:26;;;;;;;3.88;2.70;;;5.10;99.90;;;;;;6248083;22;20181;-64
2022/09/21 04:17:52;;;;;;;2.20;1.98;;;5.10;99.90;;;;;;6246640;23;20164;-65
2022/09/21 04:20:19;;;;;;;2.28;2.13;;;5.00;99.90;;;;;;6246687;23;20173;-64
2022/09/21 04:22:46;;;;;;;2.40;2.20;;;5.00;99.90;;;;;;6246533;23;20146;-63
2022/09/21 04:25:12;;;;;;;4.15;3.85;;;5.00;99.90;;;;;;6246719;22;20171;-64
2022/09/21 04:27:38;;;;;;;3.42;3.13;;;4.90;99.90;;;;;;6247200;23;20145;-65
2022/09/21 04:30:05;;;;;;;3.50;2.43;;;4.90;99.90;;;;;;6220114;23;20214;-65
2022/09/21 04:32:31;;;;;;;3.47;3.22;;;5.00;99.90;;;;;;6246327;23;20383;-64
2022/09/21 04:34:57;;;;;;;4.53;3.13;;;4.90;99.90;;;;;;6245203;22;20480;-63
2022/09/21 04:37:22;;;;;;;4.37;3.87;;;4.90;99.90;;;;;;6247549;23;20484;-65
2022/09/21 04:39:48;;;;;;;4.10;3.70;;;4.80;99.90;;;;;;6246671;23;20408;-63
2022/09/21 04:42:14;;;;;;;4.90;3.13;;;4.80;99.90;;;;;;6246953;23;20172;-65
2022/09/21 04:44:39;;;;;;;3.50;3.03;;;4.80;99.90;;;;;;6246231;22;20503;-65
2022/09/21 04:47:05;;;;;;;3.90;3.47;;;4.80;99.90;;;;;;6246604;23;20145;-65
2022/09/21 04:49:30;;;;;;;3.03;2.83;;;4.90;99.90;;;;;;6246529;23;20152;-65
2022/09/21 04:51:56;;;;;;;3.37;3.07;;;4.90;99.90;;;;;;6246679;23;20511;-65
2022/09/21 04:54:22;;;;;;;3.50;3.13;;;4.80;99.90;;;;;;6246034;22;20544;-65
2022/09/21 04:56:47;;;;;;;3.47;3.17;;;4.90;99.90;;;;;;6246987;23;20239;-65
2022/09/21 04:59:13;;;;;;;3.33;3.03;;;4.90;99.90;;;;;;6246918;23;20172;-64
2022/09/21 05:01:39;;;;;;;4.20;3.27;;;5.00;99.90;;;;;;6246847;23;20148;-65
2022/09/21 05:04:05;;;;;;;3.40;3.10;;;4.90;99.90;;;;;;6246265;22;20188;-63
2022/09/21 05:06:32;;;;;;;2.63;2.30;;;4.90;99.90;;;;;;6246406;23;20166;-64
2022/09/21 05:11:43;;;;;;;2.72;2.53;;;4.90;99.90;;;;;;6246398;23;20155;-65
2022/09/21 05:14:10;;;;;;;6.10;3.92;;;4.80;99.90;;;;;;6245984;22;20172;-66
2022/09/21 05:16:35;;;;;;;5.25;3.15;;;4.80;99.90;;;;;;6246049;23;20202;-65
2022/09/21 05:19:01;;;;;;;3.60;3.30;;;4.70;99.90;;;;;;6246400;23;20165;-63
2022/09/21 05:21:27;;;;;;;3.40;2.37;;;4.70;99.90;;;;;;6246163;23;20149;-64
2022/09/21 05:23:53;;;;;;;3.07;2.77;;;4.70;99.90;;;;;;6245624;22;20396;-63
2022/09/21 05:26:19;;;;;;;2.42;1.95;;;4.80;99.90;;;;;;6246529;23;20376;-62
2022/09/21 05:28:45;;;;;;;5.50;3.80;;;4.70;99.90;;;;;;6246184;23;20631;-64
2022/09/21 05:31:17;;;;;;;3.20;2.80;;;4.80;99.90;;;;;;6246243;23;20144;-64
2022/09/21 05:33:57;;;;;;;4.30;3.70;;;4.80;99.90;;;;;;6245896;22;20467;-63
2022/09/21 05:36:47;;;;;;;4.55;3.67;;;4.90;99.90;;;;;;6219674;23;20466;-62
2022/09/21 05:39:12;;;;;;;5.13;3.97;;;4.90;99.90;;;;;;6246243;23;20167;-62
2022/09/21 05:41:39;;;;;;;7.63;3.67;;;5.00;99.90;;;;;;6246524;23;20422;-63
2022/09/21 05:44:05;;;;;;;4.15;3.78;;;5.10;99.90;;;;;;6245520;22;20395;-65
2022/09/21 05:46:52;;;;;;;6.80;3.92;;;5.10;99.90;;;;;;6246170;23;20450;-64
2022/09/21 05:49:44;;;;;;;5.45;4.82;;;5.20;99.90;;;;;;6246159;23;20190;-65
2022/09/21 05:52:34;;;;;;;4.93;4.35;;;5.30;99.90;;;;;;6245930;23;20187;-66
2022/09/21 05:55:22;;;;;;;4.93;4.43;;;5.40;99.90;;;;;;6245961;22;20172;-67
2022/09/21 05:58:07;;;;;;;4.10;3.65;;;5.50;99.90;;;;;;6246406;23;20133;-65
2022/09/21 06:00:56;;;;;;;5.65;4.28;;;5.60;99.90;;;;;;6245198;23;20172;-64
2022/09/21 06:03:25;;;;;;;6.30;4.63;;;5.70;99.90;;;;;;6245169;22;20135;-65
2022/09/21 06:05:50;;;;;;;6.82;4.10;;;5.70;99.90;;;;;;6245572;23;20191;-65
2022/09/21 06:08:16;;;;;;;6.80;5.10;;;5.70;99.90;;;;;;6245640;23;20572;-66
2022/09/21 06:10:42;;;;;;;8.33;4.90;;;5.80;99.90;;;;;;6245974;23;20182;-64
2022/09/21 06:13:07;;;;;;;4.90;4.40;;;5.90;99.90;;;;;;6244774;22;20223;-64
2022/09/21 06:15:37;;;;;;;3.53;3.20;;;6.00;99.90;;;;;;6245661;23;20155;-66
2022/09/21 06:18:04;;;;;;;5.88;5.28;;;6.10;99.90;;;;;;6245543;23;20198;-66
2022/09/21 06:20:30;;;;;;;5.93;5.32;;;6.10;99.90;;;;;;6245827;23;20178;-65
2022/09/21 06:23:07;;;;;;;13.47;6.17;;;6.20;99.90;;;;;;6245486;23;20217;-64
2022/09/21 06:25:33;;;;;;;7.75;5.00;;;6.30;99.90;;;;;;6245807;23;20373;-64
2022/09/21 06:28:08;;;;;;;5.73;5.13;;;6.40;99.90;;;;;;6245913;23;20144;-63
2022/09/21 06:30:34;;;;;;;4.35;3.95;;;6.40;99.90;;;;;;6246056;23;20534;-64
2022/09/21 06:33:01;;;;;;;7.57;4.38;;;6.50;99.90;;;;;;6245508;23;20235;-64
2022/09/21 06:35:31;;;;;;;3.85;3.45;;;6.60;99.90;;;;;;6245605;22;20611;-67
2022/09/21 06:38:01;;;;;;;28.52;6.05;;;6.70;99.90;;;;;;6220654;23;20596;-68
2022/09/21 06:40:28;;;;;;;5.38;4.38;;;6.80;99.90;;;;;;6247969;23;20248;-68
2022/09/21 06:42:58;;;;;;;4.00;3.60;;;6.90;99.90;;;;;;6246895;23;20175;-67
2022/09/21 06:45:25;;;;;;;4.95;3.55;;;7.00;99.90;;;;;;6247520;22;20176;-67
2022/09/21 06:47:51;;;;;;;6.43;4.47;;;7.20;99.90;;;;;;6220751;23;20589;-65
2022/09/21 06:50:16;;;;;;;4.10;3.23;;;7.30;99.90;;;;;;6247976;23;20152;-67
2022/09/21 06:52:42;;;;;;;7.70;4.00;;;7.30;99.90;;;;;;6247447;23;20707;-68
2022/09/21 06:55:11;;;;;;;4.03;3.63;;;7.50;99.90;;;;;;6247805;22;20190;-68
2022/09/21 06:57:37;;;;;;;6.80;5.20;;;7.70;99.90;;;;;;6247711;23;20149;-67
2022/09/21 07:00:08;;;;;;;4.63;4.22;;;8.00;99.90;;;;;;6247667;23;20680;-67
2022/09/21 07:02:34;;;;;;;4.22;3.50;;;8.10;99.90;;;;;;6247025;23;20129;-66
2022/09/21 07:05:00;;;;;;;4.43;4.00;;;8.20;99.90;;;;;;6247548;22;20184;-66
2022/09/21 07:07:29;;;;;;;5.03;3.73;;;8.40;99.90;;;;;;6247737;23;20681;-66
2022/09/21 07:09:57;;;;;;;4.90;4.50;;;8.80;99.90;;;;;;6247679;23;20589;-65
2022/09/21 07:12:24;;;;;;;3.25;2.95;;;9.60;99.90;;;;;;6247288;23;20569;-66
2022/09/21 07:14:49;;;;;;;4.77;3.80;;;10.30;99.90;;;;;;6219977;23;20251;-66
2022/09/21 07:17:15;;;;;;;4.50;4.10;;;10.60;99.90;;;;;;6247624;23;20381;-65
2022/09/21 07:19:41;;;;;;;6.50;4.23;;;10.80;99.90;;;;;;6247030;23;20250;-63
2022/09/21 07:22:06;;;;;;;4.20;3.60;;;10.90;99.90;;;;;;6247560;23;20646;-64
2022/09/21 07:24:32;;;;;;;5.43;4.50;;;10.80;99.90;;;;;;6247050;22;20254;-65
2022/09/21 07:26:57;;;;;;;5.53;3.70;;;10.80;99.90;;;;;;6247489;23;20471;-65
2022/09/21 07:29:23;;;;;;;4.50;4.07;;;10.50;99.90;;;;;;6247262;23;20151;-65
2022/09/21 07:31:49;;;;;;;4.57;3.27;;;10.20;99.90;;;;;;6247350;23;20146;-65
2022/09/21 07:34:15;;;;;;;5.67;4.63;;;10.10;99.90;;;;;;6246809;22;20167;-64
2022/09/21 07:36:41;;;;;;;5.63;4.00;;;10.40;99.90;;;;;;6247459;23;20206;-64
2022/09/21 07:39:08;;;;;;;3.93;3.60;;;10.90;99.90;;;;;;6247251;23;20168;-66
2022/09/21 07:41:34;;;;;;;4.43;3.43;;;11.70;99.90;;;;;;6247462;23;20149;-65
2022/09/21 07:44:00;;;;;;;3.60;3.30;;;12.70;99.90;;;;;;6246336;22;20406;-64
2022/09/21 07:46:25;;;;;;;4.93;2.73;;;13.60;99.90;;;;;;6246515;23;20176;-66
2022/09/21 07:48:55;;;;;;;3.10;2.80;;;14.80;99.90;;;;;;6246815;23;20384;-66
2022/09/21 07:51:22;;;;;;;3.57;3.27;;;16.20;99.90;;;;;;6247141;23;20237;-66
2022/09/21 07:53:55;;;;;;;6.27;3.80;;;17.50;99.90;;;;;;6246527;22;20402;-66
2022/09/21 07:56:21;;;;;;;4.10;3.70;;;18.80;98.70;;;;;;6246811;23;20405;-64
2022/09/21 07:59:05;;;;;;;4.33;3.10;;;19.80;95.60;;;;;;6247272;23;20378;-64
2022/09/21 08:01:39;;;;;;;3.90;3.60;;;20.30;93.20;;;;;;6247167;23;20352;-64
2022/09/21 08:04:09;;;;;;;3.40;3.07;;;20.80;92.00;;;;;;6246239;22;20485;-65
2022/09/21 08:06:38;;;;;;;5.37;3.50;;;21.10;91.20;;;;;;6247414;23;20508;-64
2022/09/21 08:09:05;;;;;;;4.00;2.87;;;21.60;91.30;;;;;;6246851;23;20919;-65
2022/09/21 08:11:32;;;;;;;3.20;2.90;;;22.50;90.20;;;;;;6246961;23;20465;-64
2022/09/21 08:13:59;;;;;;;2.80;2.60;;;23.40;82.80;;;;;;6246445;22;20462;-65
2022/09/21 08:16:27;;;;;;;3.73;3.40;;;23.50;82.90;;;;;;6247057;23;20372;-64
2022/09/21 08:18:53;;;;;;;4.07;3.67;;;23.60;80.30;;;;;;6246603;23;20419;-67
2022/09/21 08:21:19;;;;;;;4.00;2.80;;;23.10;79.40;;;;;;6246582;23;20375;-69
2022/09/21 08:23:45;;;;;;;3.00;2.80;;;23.20;82.10;;;;;;6246256;22;20172;-69
2022/09/21 08:26:17;;;;;;;3.10;2.87;;;23.60;81.70;;;;;;6246685;23;20372;-69
2022/09/21 08:28:48;;;;;;;2.70;2.50;;;24.20;79.50;;;;;;6247006;23;20360;-68
2022/09/21 08:31:15;;;;;;;3.23;2.93;;;24.50;76.90;;;;;;6246849;23;20383;-68
2022/09/21 08:33:41;;;;;;;3.30;2.57;;;24.30;75.90;;;;;;6246251;22;20399;-70
2022/09/21 08:36:08;;;;;;;2.87;2.57;;;24.30;78.20;;;;;;6246931;23;20681;-69
2022/09/21 08:38:35;;;;;;;2.20;2.10;;;24.60;77.30;;;;;;6246799;23;20223;-68
2022/09/21 08:41:02;;;;;;;2.63;2.43;;;24.80;76.40;;;;;;6247054;23;20406;-69
2022/09/21 08:43:35;;;;;;;2.87;2.67;;;25.10;75.10;;;;;;6246649;22;20392;-69
2022/09/21 08:46:06;;;;;;;2.40;2.20;;;25.30;76.00;;;;;;6246609;23;20371;-69
2022/09/21 08:48:39;;;;;;;2.80;2.60;;;25.40;73.60;;;;;;6246781;23;20435;-68
2022/09/21 08:51:09;;;;;;;2.80;2.47;;;25.60;74.20;;;;;;6246777;23;20360;-68
2022/09/21 08:53:58;;;;;;;3.10;2.60;;;25.80;72.90;;;;;;6219300;23;20403;-68
2022/09/21 08:56:26;;;;;;;2.50;2.23;;;25.90;72.70;;;;;;6246830;23;20872;-68
2022/09/21 08:58:51;;;;;;;2.80;2.57;;;26.00;73.30;;;;;;6246351;23;20740;-67
2022/09/21 09:01:31;;;;;;;2.57;2.43;;;25.90;71.90;;;;;;6246351;23;20382;-67
2022/09/21 09:04:14;;;;;;;2.50;1.93;;;25.80;72.70;;;;;;6246109;22;20169;-69
2022/09/21 09:07:05;;;;;;;1.73;1.60;;;25.90;71.90;;;;;;6246789;23;20367;-69
2022/09/21 09:10:10;;;;;;;1.80;1.70;;;26.00;68.40;;;;;;6246699;23;20348;-69
2022/09/21 09:12:50;;;;;;;2.20;2.00;;;26.30;69.20;;;;;;6246341;23;20361;-65
2022/09/21 09:16:13;;;;;;;1.70;1.60;;;26.40;69.00;;;;;;6246536;22;20478;-66
2022/09/21 09:18:42;;;;;;;1.60;1.10;;;26.60;66.20;;;;;;6124237;23;20429;-66
2022/09/21 09:21:23;;;;;;;1.33;1.00;;;26.60;66.70;;;;;;6124245;23;21002;-67
2022/09/21 09:23:57;;;;;;;0.97;0.80;;;26.70;66.50;;;;;;6195577;22;20427;-66
2022/09/21 09:26:43;;;;;;;1.20;1.10;;;26.80;64.50;;;;;;6246003;23;20484;-66
2022/09/21 09:29:20;;;;;;;0.80;0.80;;;26.80;64.40;;;;;;6246175;23;20382;-67
2022/09/21 09:31:47;;;;;;;0.80;0.80;;;26.70;62.00;;;;;;6246026;23;20360;-65
2022/09/21 09:34:42;;;;;;;1.13;0.80;;;26.30;62.70;;;;;;6218923;23;20388;-65
2022/09/21 09:37:14;;;;;;;1.80;0.80;;;26.20;63.30;;;;;;6243031;23;20386;-65
2022/09/21 09:39:42;;;;;;;0.90;0.90;;;26.40;63.00;;;;;;6245942;23;20437;-66
2022/09/21 09:42:40;;;;;;;0.93;0.93;;;26.60;62.00;;;;;;6246125;23;20450;-66
2022/09/21 09:45:20;;;;;;;0.70;0.60;;;26.30;59.90;;;;;;6183283;23;20399;-66
2022/09/21 09:48:22;;;;;;;1.23;0.83;;;26.30;60.30;;;;;;6245761;23;20356;-69
2022/09/21 09:50:47;;;;;;;0.73;0.73;;;26.00;59.90;;;;;;6245157;23;20444;-71
2022/09/21 09:53:23;;;;;;;1.80;0.70;;;25.80;60.20;;;;;;6244364;22;20877;-73
2022/09/21 09:55:51;;;;;;;0.77;0.70;;;25.60;59.70;;;;;;6245835;23;20172;-71
2022/09/21 09:58:46;;;;;;;1.00;0.80;;;25.00;62.30;;;;;;6244768;23;20858;-72
2022/09/21 10:01:37;;;;;;;0.73;0.70;;;25.00;62.80;;;;;;6245337;23;20380;-72
2022/09/21 10:04:07;;;;;;;1.27;0.60;;;25.10;62.00;;;;;;6244759;22;20747;-71
2022/09/21 10:06:33;;;;;;;0.90;0.87;;;25.20;61.80;;;;;;6245452;23;20354;-70
2022/09/21 10:08:59;;;;;;;0.60;0.60;;;25.10;62.90;;;;;;6245155;23;20814;-70
2022/09/21 10:11:35;;;;;;;0.83;0.63;;;25.10;63.70;;;;;;6218432;23;20156;-71
2022/09/21 10:14:09;;;;;;;1.00;0.77;;;25.30;64.30;;;;;;6242265;22;20165;-71
2022/09/21 10:16:40;;;;;;;1.00;1.00;;;25.30;63.30;;;;;;6243081;23;20429;-73
2022/09/21 10:19:16;;;;;;;1.10;1.10;;;25.30;64.90;;;;;;6242988;23;20427;-72
2022/09/21 10:21:45;;;;;;;1.33;1.23;;;25.30;66.90;;;;;;6243019;23;20648;-72
2022/09/21 10:24:28;;;;;;;1.23;0.80;;;25.40;64.70;;;;;;6243128;22;20391;-71
2022/09/21 10:27:01;;;;;;;0.90;0.90;;;25.30;62.30;;;;;;6243940;23;20364;-72
2022/09/21 10:29:31;;;;;;;1.13;0.70;;;25.60;62.60;;;;;;6245543;23;20451;-72
2022/09/21 10:32:16;;;;;;;0.83;0.83;;;25.30;63.20;;;;;;6218187;23;20874;-71
2022/09/21 10:35:02;;;;;;;0.97;0.90;;;25.20;64.50;;;;;;6244855;22;20490;-70
2022/09/21 10:37:32;;;;;;;0.80;0.80;;;24.40;63.70;;;;;;6245516;23;20439;-70
2022/09/21 10:39:58;;;;;;;0.70;0.70;;;23.30;66.40;;;;;;6245596;23;20402;-70
2022/09/21 10:42:24;;;;;;;1.83;0.60;;;23.00;68.20;;;;;;6245423;23;20457;-71
2022/09/21 10:45:03;;;;;;;1.13;1.03;;;23.10;67.00;;;;;;6244898;22;20172;-69
2022/09/21 10:47:53;;;;;;;0.60;0.60;;;22.70;66.60;;;;;;6245301;23;20326;-69
2022/09/21 10:50:35;;;;;;;2.67;0.77;;;21.80;67.40;;;;;;6245469;23;20657;-70
2022/09/21 10:53:09;;;;;;;0.50;0.50;;;21.00;68.30;;;;;;6245148;23;20370;-70
2022/09/21 10:55:45;;;;;;;1.30;0.90;;;20.10;69.40;;;;;;6245286;23;20332;-70
2022/09/21 10:58:13;;;;;;;1.77;1.10;;;19.50;71.90;;;;;;6245165;23;20337;-70
2022/09/21 11:00:46;;;;;;;2.93;0.70;;;19.40;73.10;;;;;;6245095;23;20395;-69
2022/09/21 11:03:57;;;;;;;0.50;0.50;;;19.70;73.80;;;;;;6244654;22;20350;-69
2022/09/21 11:06:31;;;;;;;0.87;0.60;;;19.80;72.60;;;;;;6122910;23;20386;-70
2022/09/21 11:09:21;;;;;;;0.70;0.70;;;19.50;73.50;;;;;;6235554;23;20387;-69
2022/09/21 11:11:54;;;;;;;0.60;0.60;;;19.20;76.60;;;;;;6217664;23;20362;-69
2022/09/21 11:14:50;;;;;;;0.70;0.60;;;19.00;74.80;;;;;;6244297;22;20380;-69
2022/09/21 11:17:32;;;;;;;0.50;0.50;;;18.80;75.70;;;;;;6245063;23;20372;-68
2022/09/21 11:20:24;;;;;;;2.03;0.70;;;18.50;76.50;;;;;;6245048;23;20376;-69
2022/09/21 11:23:03;;;;;;;0.70;0.60;;;18.50;78.00;;;;;;6245417;23;20435;-69
2022/09/21 11:25:47;;;;;;;0.80;0.80;;;18.50;77.10;;;;;;6247453;22;20410;-70
2022/09/21 11:28:36;;;;;;;0.77;0.77;;;18.50;78.90;;;;;;6246590;23;20333;-70
2022/09/21 11:31:11;;;;;;;1.33;0.70;;;18.50;78.00;;;;;;6246589;23;20407;-68
2022/09/21 11:34:16;;;;;;;0.90;0.90;;;18.60;77.30;;;;;;6246054;22;20360;-66
2022/09/21 11:37:10;;;;;;;1.70;0.70;;;18.60;76.20;;;;;;6246735;23;20404;-67
2022/09/21 11:40:18;;;;;;;0.70;0.67;;;18.50;75.40;;;;;;6246721;23;20417;-67
2022/09/21 11:43:11;;;;;;;1.10;0.80;;;18.30;77.90;;;;;;6124046;23;20395;-66
2022/09/21 11:45:39;;;;;;;0.50;0.50;;;18.10;77.00;;;;;;6124913;23;20341;-67
2022/09/21 11:48:14;;;;;;;0.70;0.70;;;18.20;76.30;;;;;;6124622;23;20383;-67
2022/09/21 11:51:11;;;;;;;0.70;0.70;;;18.30;76.10;;;;;;6124621;23;20378;-65
2022/09/21 11:54:19;;;;;;;0.60;0.60;;;18.30;76.80;;;;;;6076594;23;20385;-67
2022/09/21 11:56:52;;;;;;;1.23;0.70;;;18.20;77.70;;;;;;6124462;23;20405;-68
2022/09/21 11:59:50;;;;;;;1.03;0.70;;;18.20;76.80;;;;;;6124787;23;20386;-67
2022/09/21 12:02:37;;;;;;;0.70;0.70;;;18.20;76.70;;;;;;6124746;23;20330;-67
2022/09/21 12:05:19;;;;;;;0.60;0.60;;;18.20;76.50;;;;;;6124536;23;20866;-65
2022/09/21 12:08:16;;;;;;;1.00;0.83;;;18.20;75.90;;;;;;6124343;23;20379;-64
2022/09/21 12:11:01;;;;;;;0.60;0.60;;;18.10;76.60;;;;;;6124108;23;20387;-63
2022/09/21 12:13:49;;;;;;;0.80;0.63;;;18.10;76.40;;;;;;6186359;22;20362;-63
2022/09/21 12:16:20;;;;;;;0.40;0.40;;;18.00;76.20;;;;;;6246623;23;20351;-63
2022/09/21 12:19:03;;;;;;;0.50;0.50;;;17.90;76.30;;;;;;6246651;23;20366;-64
2022/09/21 12:21:42;;;;;;;0.70;0.70;;;17.80;76.90;;;;;;6246358;23;20401;-65
2022/09/21 12:24:34;;;;;;;0.77;0.60;;;17.60;77.50;;;;;;6245796;22;20387;-64
2022/09/21 12:27:07;;;;;;;0.60;0.60;;;17.40;78.90;;;;;;6246687;23;20366;-63
2022/09/21 12:29:48;;;;;;;0.60;0.50;;;17.30;79.00;;;;;;6246108;23;20470;-69
2022/09/21 12:32:46;;;;;;;0.53;0.53;;;17.20;78.50;;;;;;6246548;23;20366;-68
2022/09/21 12:35:19;;;;;;;0.60;0.60;;;17.10;80.00;;;;;;6246082;22;20390;-70
2022/09/21 12:38:00;;;;;;;1.13;1.03;;;17.00;79.30;;;;;;6246103;23;20735;-66
2022/09/21 12:40:44;;;;;;;1.17;0.57;;;17.00;80.20;;;;;;6245868;23;20712;-70
2022/09/21 12:43:27;;;;;;;2.10;0.80;;;17.20;79.30;;;;;;6218682;22;20373;-66
2022/09/21 12:45:53;;;;;;;0.80;0.80;;;17.30;79.30;;;;;;6246175;23;20344;-68
2022/09/21 12:48:39;;;;;;;0.70;0.60;;;17.60;77.60;;;;;;6246187;23;20337;-67
2022/09/21 12:51:04;;;;;;;0.70;0.53;;;17.60;76.60;;;;;;6245998;23;20132;-72
2022/09/21 12:53:34;;;;;;;1.13;0.70;;;17.60;76.60;;;;;;6245144;22;20516;-70
2022/09/21 12:56:19;;;;;;;1.27;0.80;;;17.50;77.50;;;;;;6245937;23;20135;-71
2022/09/21 12:58:56;;;;;;;0.50;0.50;;;17.30;78.20;;;;;;6245649;23;20351;-71
2022/09/21 13:01:40;;;;;;;0.63;0.63;;;17.20;79.30;;;;;;6219160;23;20350;-72
2022/09/21 13:04:29;;;;;;;0.60;0.60;;;17.00;80.20;;;;;;6245174;22;20440;-71
2022/09/21 13:07:00;;;;;;;0.70;0.70;;;17.10;80.90;;;;;;6245669;23;20748;-69
2022/09/21 13:09:28;;;;;;;0.53;0.40;;;17.10;78.80;;;;;;6245723;23;20421;-71
2022/09/21 13:11:59;;;;;;;0.80;0.80;;;17.20;79.20;;;;;;6246134;23;20753;-70
2022/09/21 13:14:28;;;;;;;0.60;0.60;;;17.30;78.70;;;;;;6245369;22;20400;-69
2022/09/21 13:17:00;;;;;;;1.57;0.70;;;17.40;74.80;;;;;;6245743;23;20380;-68
2022/09/21 13:19:28;;;;;;;0.53;0.53;;;17.40;75.80;;;;;;6245880;23;20503;-70
2022/09/21 13:22:19;;;;;;;0.50;0.50;;;17.40;74.80;;;;;;6245683;23;20649;-70
2022/09/21 13:25:02;;;;;;;1.13;0.60;;;17.50;73.70;;;;;;6245629;22;20692;-69
2022/09/21 13:27:59;;;;;;;0.70;0.67;;;17.50;74.10;;;;;;6246053;23;20324;-66
2022/09/21 13:30:35;;;;;;;0.80;0.70;;;17.50;72.70;;;;;;6246099;23;20349;-70
2022/09/21 13:33:03;;;;;;;1.10;0.70;;;17.50;72.90;;;;;;6245611;23;20733;-72
2022/09/21 13:35:47;;;;;;;0.73;0.73;;;17.50;73.90;;;;;;6244148;22;20368;-69
2022/09/21 13:38:26;;;;;;;1.07;0.80;;;17.60;75.40;;;;;;6243938;23;20361;-71
2022/09/21 13:41:01;;;;;;;0.60;0.60;;;17.70;74.10;;;;;;6244027;23;20395;-67
2022/09/21 13:43:49;;;;;;;0.70;0.50;;;17.60;72.80;;;;;;6243540;22;20723;-68
2022/09/21 13:46:36;;;;;;;1.90;0.63;;;17.60;73.00;;;;;;6242908;23;20357;-69
2022/09/21 13:49:10;;;;;;;1.50;0.70;;;17.50;71.70;;;;;;6244180;23;20370;-69
2022/09/21 13:51:59;;;;;;;0.80;0.60;;;17.50;71.60;;;;;;6245850;23;20424;-67
2022/09/21 13:54:38;;;;;;;0.60;0.60;;;17.60;72.90;;;;;;6245428;22;20371;-69
2022/09/21 13:57:36;;;;;;;0.70;0.70;;;17.60;71.20;;;;;;6219870;23;20363;-68
2022/09/21 14:00:11;;;;;;;0.70;0.70;;;17.60;71.80;;;;;;6178599;23;20973;-66
2022/09/21 14:02:43;;;;;;;1.47;0.90;;;17.70;73.80;;;;;;6218941;23;20431;-68
2022/09/21 14:05:30;;;;;;;0.50;0.50;;;17.80;74.90;;;;;;6245816;22;20758;-69
2022/09/21 14:08:12;;;;;;;1.33;0.70;;;17.70;74.90;;;;;;6245867;23;20350;-68
2022/09/21 14:10:39;;;;;;;1.50;0.60;;;17.60;75.10;;;;;;6246109;23;20321;-67
2022/09/21 14:13:42;;;;;;;0.80;0.80;;;17.50;74.80;;;;;;6245583;23;20387;-68
2022/09/21 14:16:33;;;;;;;0.90;0.90;;;17.40;76.10;;;;;;6240317;23;20431;-69
2022/09/21 14:19:06;;;;;;;0.50;0.50;;;17.40;76.10;;;;;;6245927;23;20388;-69
2022/09/21 14:21:32;;;;;;;0.70;0.70;;;17.50;73.70;;;;;;6245397;23;20824;-68
2022/09/21 14:24:15;;;;;;;0.70;0.70;;;17.50;74.30;;;;;;6245431;22;20491;-71
2022/09/21 14:26:41;;;;;;;0.80;0.80;;;17.60;72.20;;;;;;6245453;23;20136;-68
2022/09/21 14:29:54;;;;;;;0.90;0.70;;;17.50;71.60;;;;;;6245834;23;20464;-70
2022/09/21 14:32:23;;;;;;;0.70;0.70;;;17.50;71.60;;;;;;6246151;23;20147;-71
2022/09/21 14:34:55;;;;;;;1.73;0.60;;;17.30;70.40;;;;;;6244941;22;20414;-69
2022/09/21 14:37:36;;;;;;;1.07;0.73;;;17.20;71.00;;;;;;6245998;23;20332;-69
2022/09/21 14:40:15;;;;;;;0.60;0.60;;;17.10;71.10;;;;;;6246231;23;20884;-71
2022/09/21 14:42:42;;;;;;;1.00;0.70;;;17.10;70.70;;;;;;6246212;23;20337;-70
2022/09/21 14:45:17;;;;;;;0.47;0.47;;;16.90;70.90;;;;;;6245778;22;20423;-71
2022/09/21 14:47:50;;;;;;;0.70;0.70;;;16.90;71.40;;;;;;6245242;23;20363;-70
2022/09/21 14:50:41;;;;;;;0.60;0.60;;;16.90;70.20;;;;;;6245753;23;20327;-69
2022/09/21 14:53:34;;;;;;;0.70;0.70;;;16.90;69.20;;;;;;6245196;22;20358;-72
2022/09/21 14:56:32;;;;;;;0.50;0.50;;;16.90;69.60;;;;;;6245691;23;20726;-70
2022/09/21 14:59:20;;;;;;;0.47;0.47;;;16.90;69.40;;;;;;6247664;23;20349;-70
2022/09/21 15:01:59;;;;;;;2.47;1.00;;;16.90;70.70;;;;;;6248648;23;20353;-70
2022/09/21 15:04:53;;;;;;;0.60;0.60;;;16.80;70.50;;;;;;6247130;22;20371;-70
2022/09/21 15:10:56;;;;;;;0.43;0.43;;;16.70;68.40;;;;;;6248233;23;20362;-70
2022/09/21 15:13:59;;;;;;;0.63;0.60;;;16.50;68.70;;;;;;6208421;22;20407;-71
2022/09/21 15:16:44;;;;;;;0.70;0.70;;;16.40;69.30;;;;;;6247688;23;20338;-72
2022/09/21 15:19:22;;;;;;;0.63;0.63;;;16.30;70.10;;;;;;6247750;23;20470;-71
2022/09/21 15:21:48;;;;;;;0.70;0.70;;;16.30;71.10;;;;;;6247729;23;20349;-71
2022/09/21 15:24:19;;;;;;;0.67;0.67;;;16.30;70.70;;;;;;6247322;22;20366;-70
2022/09/21 15:26:45;;;;;;;0.80;0.80;;;16.30;71.40;;;;;;6247629;23;20350;-70
2022/09/21 15:29:27;;;;;;;1.87;0.80;;;16.30;72.50;;;;;;6247709;23;20376;-70
2022/09/21 15:31:53;;;;;;;0.50;0.50;;;16.30;72.80;;;;;;6247413;23;20348;-71
2022/09/21 15:34:19;;;;;;;0.70;0.70;;;16.40;71.20;;;;;;6246929;22;20770;-71
2022/09/21 15:36:49;;;;;;;0.70;0.70;;;16.40;71.10;;;;;;6247373;23;20334;-70
2022/09/21 15:39:30;;;;;;;0.60;0.60;;;16.50;71.10;;;;;;6220368;23;20402;-70
2022/09/21 15:42:04;;;;;;;0.60;0.60;;;16.50;70.40;;;;;;6247566;23;20709;-70
2022/09/21 15:44:33;;;;;;;0.97;0.97;;;16.40;70.70;;;;;;6246795;22;20444;-71
2022/09/21 15:47:01;;;;;;;0.60;0.60;;;16.50;71.70;;;;;;6247272;23;20353;-69
2022/09/21 15:49:28;;;;;;;1.03;0.70;;;16.40;70.80;;;;;;6220502;23;20396;-69
2022/09/21 15:52:04;;;;;;;0.70;0.70;;;16.40;70.40;;;;;;6247335;23;20673;-71
2022/09/21 15:54:41;;;;;;;1.23;0.90;;;16.40;70.50;;;;;;6246523;22;20410;-71
2022/09/21 15:57:29;;;;;;;0.80;0.80;;;16.40;71.70;;;;;;6247352;23;20383;-69
2022/09/21 15:59:55;;;;;;;0.90;0.90;;;16.30;74.10;;;;;;6247107;23;20425;-70
2022/09/21 16:02:24;;;;;;;0.73;0.73;;;16.30;75.30;;;;;;6247141;23;20372;-71
2022/09/21 16:04:51;;;;;;;0.70;0.70;;;16.20;75.40;;;;;;6246067;22;20238;-70
2022/09/21 16:07:37;;;;;;;1.00;1.00;;;16.20;75.90;;;;;;6220178;23;20359;-71
2022/09/21 16:10:29;;;;;;;1.47;1.03;;;16.10;76.90;;;;;;6246040;23;20707;-72
2022/09/21 16:16:14;;;;;;;1.03;0.83;;;16.00;77.10;;;;;;6247322;23;20383;-70
2022/09/21 16:18:46;;;;;;;0.60;0.60;;;16.00;76.60;;;;;;6247172;23;20346;-73
2022/09/21 16:21:31;;;;;;;0.53;0.53;;;16.00;76.30;;;;;;6247145;23;20148;-68
2022/09/21 16:24:08;;;;;;;0.90;0.90;;;15.90;75.60;;;;;;6246565;22;20433;-71
2022/09/21 16:26:37;;;;;;;1.07;0.70;;;15.90;75.10;;;;;;6247451;23;20319;-70
2022/09/21 16:29:22;;;;;;;0.60;0.60;;;15.90;75.80;;;;;;6246592;23;20376;-69
2022/09/21 16:31:48;;;;;;;0.63;0.53;;;15.80;76.40;;;;;;6247150;23;20352;-69
2022/09/21 16:34:31;;;;;;;0.67;0.67;;;15.80;76.70;;;;;;6246545;22;20382;-68
2022/09/21 16:36:58;;;;;;;0.60;0.60;;;15.80;77.00;;;;;;6247093;23;20672;-70
2022/09/21 16:39:23;;;;;;;0.60;0.60;;;15.70;77.70;;;;;;6246745;23;20423;-67
2022/09/21 16:41:58;;;;;;;0.73;0.73;;;15.60;78.40;;;;;;6246934;23;20335;-68
2022/09/21 16:44:26;;;;;;;0.77;0.77;;;15.60;78.80;;;;;;6246179;22;20168;-71
2022/09/21 16:47:00;;;;;;;0.83;0.83;;;15.50;80.80;;;;;;6246310;23;20366;-73
2022/09/21 16:49:30;;;;;;;0.90;0.90;;;15.50;80.60;;;;;;6246655;23;20465;-71
2022/09/21 16:51:56;;;;;;;1.00;1.00;;;15.40;81.60;;;;;;6246878;23;20342;-74
2022/09/21 16:54:24;;;;;;;0.63;0.63;;;15.40;82.00;;;;;;6246269;22;20401;-73
2022/09/21 16:56:51;;;;;;;0.80;0.80;;;15.30;82.50;;;;;;6246720;23;20347;-71
2022/09/21 16:59:20;;;;;;;0.83;0.83;;;15.30;82.70;;;;;;6246552;23;20444;-68
2022/09/21 17:01:50;;;;;;;0.80;0.80;;;15.20;83.00;;;;;;6246636;23;20343;-69
2022/09/21 17:04:18;;;;;;;3.63;1.20;;;15.20;82.80;;;;;;6246222;22;20391;-68
2022/09/21 17:06:43;;;;;;;0.80;0.80;;;15.10;83.10;;;;;;6246786;23;20338;-67
2022/09/21 17:09:17;;;;;;;1.17;1.10;;;15.00;83.20;;;;;;6246730;23;20371;-64
2022/09/21 17:11:47;;;;;;;0.80;0.80;;;15.00;83.70;;;;;;6246771;23;20206;-72
2022/09/21 17:14:15;;;;;;;0.80;0.80;;;14.90;84.20;;;;;;6245913;22;20394;-67
2022/09/21 17:16:56;;;;;;;0.80;0.80;;;14.80;84.80;;;;;;6246580;23;20398;-72
2022/09/21 17:19:22;;;;;;;0.90;0.90;;;14.80;85.30;;;;;;6246546;23;20775;-66
2022/09/21 17:21:48;;;;;;;0.80;0.80;;;14.70;84.90;;;;;;6246154;23;20367;-66
2022/09/21 17:24:15;;;;;;;1.00;1.00;;;14.70;85.10;;;;;;6246101;22;20163;-65
2022/09/21 17:26:42;;;;;;;0.80;0.80;;;14.60;85.40;;;;;;6246514;23;20376;-67
2022/09/21 17:29:25;;;;;;;0.80;0.80;;;14.60;85.20;;;;;;6246391;23;20374;-66
2022/09/21 17:31:53;;;;;;;0.83;0.83;;;14.50;85.50;;;;;;6246537;23;20343;-65
2022/09/21 17:34:30;;;;;;;0.80;0.80;;;14.40;85.70;;;;;;6245921;22;20447;-65
2022/09/21 17:36:56;;;;;;;1.10;1.10;;;14.30;85.90;;;;;;6246132;23;20366;-65
2022/09/21 17:39:23;;;;;;;1.10;1.00;;;14.20;86.00;;;;;;6246537;23;20414;-65
2022/09/21 17:41:54;;;;;;;1.07;1.07;;;14.20;86.20;;;;;;6246301;23;20147;-64